sensor_id;sensor_type;location;lat;lon;timestamp;pressure;altitude;pressure_sealevel;temperature;humidity
13593;BME280;6867;50.998;4.250;2022-09-16T00:01:35;100845.88;;;15.72;63.73
13593;BME280;6867;50.998;4.250;2022-09-16T00:04:03;100857.50;;;15.61;64.18
13593;BME280;6867;50.998;4.250;2022-09-16T00:06:30;100850.22;;;15.50;64.50
13593;BME280;6867;50.998;4.250;2022-09-16T00:08:58;100856.59;;;15.43;64.77
13593;BME280;6867;50.998;4.250;2022-09-16T00:11:27;100860.13;;;15.32;64.74
13593;BME280;6867;50.998;4.250;2022-09-16T00:13:53;100864.72;;;15.20;65.40
13593;BME280;6867;50.998;4.250;2022-09-16T00:16:23;100876.38;;;15.09;66.02
13593;BME280;6867;50.998;4.250;2022-09-16T00:18:52;100892.00;;;14.95;66.93
13593;BME280;6867;50.998;4.250;2022-09-16T00:21:22;100888.09;;;14.79;67.22
13593;BME280;6867;50.998;4.250;2022-09-16T00:23:48;100907.47;;;14.64;67.82
13593;BME280;6867;50.998;4.250;2022-09-16T00:26:15;100910.19;;;14.64;68.03
13593;BME280;6867;50.998;4.250;2022-09-16T00:28:42;100902.88;;;14.65;68.16
13593;BME280;6867;50.998;4.250;2022-09-16T00:31:09;100905.22;;;14.61;68.76
13593;BME280;6867;50.998;4.250;2022-09-16T00:33:36;100919.00;;;14.60;68.97
13593;BME280;6867;50.998;4.250;2022-09-16T00:36:04;100925.78;;;14.62;69.34
13593;BME280;6867;50.998;4.250;2022-09-16T00:38:33;100931.19;;;14.62;69.50
13593;BME280;6867;50.998;4.250;2022-09-16T00:40:59;100921.44;;;14.61;70.06
13593;BME280;6867;50.998;4.250;2022-09-16T00:43:26;100926.03;;;14.61;69.79
13593;BME280;6867;50.998;4.250;2022-09-16T00:45:56;100921.09;;;14.58;69.90
13593;BME280;6867;50.998;4.250;2022-09-16T00:48:26;100920.13;;;14.52;70.34
13593;BME280;6867;50.998;4.250;2022-09-16T00:50:58;100927.72;;;14.43;70.48
13593;BME280;6867;50.998;4.250;2022-09-16T00:53:28;100927.03;;;14.48;70.33
13593;BME280;6867;50.998;4.250;2022-09-16T00:56:00;100933.50;;;14.47;70.82
13593;BME280;6867;50.998;4.250;2022-09-16T00:58:32;100921.84;;;14.47;70.14
13593;BME280;6867;50.998;4.250;2022-09-16T01:01:04;100918.53;;;14.44;70.31
13593;BME280;6867;50.998;4.250;2022-09-16T01:03:32;100922.50;;;14.42;71.13
13593;BME280;6867;50.998;4.250;2022-09-16T01:06:02;100927.88;;;14.49;70.89
13593;BME280;6867;50.998;4.250;2022-09-16T01:08:28;100925.28;;;14.54;70.65
13593;BME280;6867;50.998;4.250;2022-09-16T01:10:55;100926.50;;;14.58;70.37
13593;BME280;6867;50.998;4.250;2022-09-16T01:13:23;100926.03;;;14.61;70.66
13593;BME280;6867;50.998;4.250;2022-09-16T01:15:54;100925.22;;;14.60;70.38
13593;BME280;6867;50.998;4.250;2022-09-16T01:18:25;100921.44;;;14.61;70.30
13593;BME280;6867;50.998;4.250;2022-09-16T01:21:24;100912.28;;;14.62;70.39
13593;BME280;6867;50.998;4.250;2022-09-16T01:24:23;100908.34;;;14.77;70.17
13593;BME280;6867;50.998;4.250;2022-09-16T01:27:26;100909.31;;;14.94;69.28
13593;BME280;6867;50.998;4.250;2022-09-16T01:30:31;100904.72;;;15.06;69.09
13593;BME280;6867;50.998;4.250;2022-09-16T01:33:02;100894.03;;;15.23;68.15
13593;BME280;6867;50.998;4.250;2022-09-16T01:35:44;100890.63;;;15.39;67.80
13593;BME280;6867;50.998;4.250;2022-09-16T01:38:25;100883.41;;;15.57;67.42
13593;BME280;6867;50.998;4.250;2022-09-16T01:41:04;100881.16;;;15.54;67.17
13593;BME280;6867;50.998;4.250;2022-09-16T01:43:41;100871.63;;;15.63;67.08
13593;BME280;6867;50.998;4.250;2022-09-16T01:46:19;100865.53;;;15.67;66.39
13593;BME280;6867;50.998;4.250;2022-09-16T01:48:52;100849.75;;;15.76;65.66
13593;BME280;6867;50.998;4.250;2022-09-16T01:51:25;100838.41;;;15.79;65.00
13593;BME280;6867;50.998;4.250;2022-09-16T01:54:01;100848.03;;;15.87;64.70
13593;BME280;6867;50.998;4.250;2022-09-16T01:56:31;100844.38;;;15.93;64.45
13593;BME280;6867;50.998;4.250;2022-09-16T01:59:04;100841.69;;;15.93;64.53
13593;BME280;6867;50.998;4.250;2022-09-16T02:01:38;100853.91;;;15.96;64.51
13593;BME280;6867;50.998;4.250;2022-09-16T02:04:11;100852.72;;;15.91;64.72
13593;BME280;6867;50.998;4.250;2022-09-16T02:06:41;100863.00;;;15.89;64.85
13593;BME280;6867;50.998;4.250;2022-09-16T02:09:12;100879.28;;;15.78;65.15
13593;BME280;6867;50.998;4.250;2022-09-16T02:11:42;100885.97;;;15.87;65.27
13593;BME280;6867;50.998;4.250;2022-09-16T02:14:14;100873.97;;;15.83;64.99
13593;BME280;6867;50.998;4.250;2022-09-16T02:16:49;100869.16;;;15.73;65.55
13593;BME280;6867;50.998;4.250;2022-09-16T02:19:21;100873.88;;;15.66;65.73
13593;BME280;6867;50.998;4.250;2022-09-16T02:21:49;100882.00;;;15.54;66.22
13593;BME280;6867;50.998;4.250;2022-09-16T02:24:18;100893.44;;;15.44;67.05
13593;BME280;6867;50.998;4.250;2022-09-16T02:26:51;100908.84;;;15.44;67.41
13593;BME280;6867;50.998;4.250;2022-09-16T02:29:21;100916.38;;;15.42;67.68
13593;BME280;6867;50.998;4.250;2022-09-16T02:31:52;100908.84;;;15.44;68.13
13593;BME280;6867;50.998;4.250;2022-09-16T02:34:24;100911.81;;;15.42;68.06
13593;BME280;6867;50.998;4.250;2022-09-16T02:36:56;100935.44;;;15.35;69.22
13593;BME280;6867;50.998;4.250;2022-09-16T02:39:28;100919.22;;;15.35;68.68
13593;BME280;6867;50.998;4.250;2022-09-16T02:41:58;100911.81;;;15.31;68.76
13593;BME280;6867;50.998;4.250;2022-09-16T02:44:26;100906.25;;;15.37;68.46
13593;BME280;6867;50.998;4.250;2022-09-16T02:46:59;100925.91;;;15.33;68.72
13593;BME280;6867;50.998;4.250;2022-09-16T02:49:29;100915.44;;;15.25;68.90
13593;BME280;6867;50.998;4.250;2022-09-16T02:52:04;100922.28;;;15.27;69.39
13593;BME280;6867;50.998;4.250;2022-09-16T02:54:41;100928.25;;;15.41;69.02
13593;BME280;6867;50.998;4.250;2022-09-16T02:57:10;100912.28;;;15.51;68.52
13593;BME280;6867;50.998;4.250;2022-09-16T02:59:37;100901.44;;;15.39;69.03
13593;BME280;6867;50.998;4.250;2022-09-16T03:02:06;100912.38;;;15.44;68.88
13593;BME280;6867;50.998;4.250;2022-09-16T03:04:34;100922.97;;;15.46;68.97
13593;BME280;6867;50.998;4.250;2022-09-16T03:07:02;100908.25;;;15.54;69.19
13593;BME280;6867;50.998;4.250;2022-09-16T03:09:29;100905.78;;;15.52;69.03
13593;BME280;6867;50.998;4.250;2022-09-16T03:12:18;100920.25;;;15.58;69.07
13593;BME280;6867;50.998;4.250;2022-09-16T03:15:02;100924.59;;;15.59;69.29
13593;BME280;6867;50.998;4.250;2022-09-16T03:17:50;100932.59;;;15.42;70.30
13593;BME280;6867;50.998;4.250;2022-09-16T03:20:21;100936.00;;;15.02;71.42
13593;BME280;6867;50.998;4.250;2022-09-16T03:22:57;100941.88;;;14.99;72.03
13593;BME280;6867;50.998;4.250;2022-09-16T03:25:32;100948.47;;;15.03;72.37
13593;BME280;6867;50.998;4.250;2022-09-16T03:28:04;100936.00;;;15.02;72.02
13593;BME280;6867;50.998;4.250;2022-09-16T03:30:38;100935.34;;;15.30;71.18
13593;BME280;6867;50.998;4.250;2022-09-16T03:33:16;100932.03;;;15.28;71.29
13593;BME280;6867;50.998;4.250;2022-09-16T03:35:46;100921.09;;;15.35;70.57
13593;BME280;6867;50.998;4.250;2022-09-16T03:38:16;100917.44;;;15.29;70.17
13593;BME280;6867;50.998;4.250;2022-09-16T03:40:46;100930.50;;;15.20;70.48
13593;BME280;6867;50.998;4.250;2022-09-16T03:43:15;100936.03;;;15.26;71.31
13593;BME280;6867;50.998;4.250;2022-09-16T03:45:42;100939.56;;;15.26;71.15
13593;BME280;6867;50.998;4.250;2022-09-16T03:48:12;100931.44;;;15.38;70.71
13593;BME280;6867;50.998;4.250;2022-09-16T03:50:39;100926.50;;;15.35;70.55
13593;BME280;6867;50.998;4.250;2022-09-16T03:53:06;100929.56;;;15.38;70.36
13593;BME280;6867;50.998;4.250;2022-09-16T03:55:33;100924.50;;;15.30;70.29
13593;BME280;6867;50.998;4.250;2022-09-16T03:58:00;100930.38;;;15.27;70.61
13593;BME280;6867;50.998;4.250;2022-09-16T04:00:26;100933.22;;;15.32;71.08
13593;BME280;6867;50.998;4.250;2022-09-16T04:02:54;100933.47;;;15.31;71.10
13593;BME280;6867;50.998;4.250;2022-09-16T04:05:22;100926.50;;;15.35;70.63
13593;BME280;6867;50.998;4.250;2022-09-16T04:07:49;100916.72;;;15.45;70.15
13593;BME280;6867;50.998;4.250;2022-09-16T04:10:15;100907.31;;;15.36;69.80
13593;BME280;6867;50.998;4.250;2022-09-16T04:12:42;100901.56;;;15.33;69.80
13593;BME280;6867;50.998;4.250;2022-09-16T04:15:09;100893.78;;;15.25;69.46
13593;BME280;6867;50.998;4.250;2022-09-16T04:17:37;100893.31;;;15.28;69.07
13593;BME280;6867;50.998;4.250;2022-09-16T04:20:04;100890.88;;;15.26;69.16
13593;BME280;6867;50.998;4.250;2022-09-16T04:22:34;100886.94;;;15.34;68.65
13593;BME280;6867;50.998;4.250;2022-09-16T04:25:01;100875.81;;;15.30;68.64
13593;BME280;6867;50.998;4.250;2022-09-16T04:27:28;100877.78;;;15.23;68.70
13593;BME280;6867;50.998;4.250;2022-09-16T04:29:55;100875.81;;;15.30;68.37
13593;BME280;6867;50.998;4.250;2022-09-16T04:32:23;100872.75;;;15.38;68.55
13593;BME280;6867;50.998;4.250;2022-09-16T04:34:50;100889.78;;;15.27;69.00
13593;BME280;6867;50.998;4.250;2022-09-16T04:37:17;100881.31;;;15.24;68.98
13593;BME280;6867;50.998;4.250;2022-09-16T04:39:45;100891.78;;;15.08;70.01
13593;BME280;6867;50.998;4.250;2022-09-16T04:42:11;100888.13;;;14.91;70.16
13593;BME280;6867;50.998;4.250;2022-09-16T04:44:38;100920.44;;;14.74;71.20
13593;BME280;6867;50.998;4.250;2022-09-16T04:47:05;100931.69;;;14.71;71.27
13593;BME280;6867;50.998;4.250;2022-09-16T04:49:32;100923.59;;;14.71;71.30
13593;BME280;6867;50.998;4.250;2022-09-16T04:51:58;100923.84;;;14.81;71.12
13593;BME280;6867;50.998;4.250;2022-09-16T04:54:25;100925.50;;;14.82;71.02
13593;BME280;6867;50.998;4.250;2022-09-16T04:56:53;100931.28;;;14.86;70.74
13593;BME280;6867;50.998;4.250;2022-09-16T04:59:20;100926.00;;;14.91;71.09
13593;BME280;6867;50.998;4.250;2022-09-16T05:01:47;100930.47;;;14.97;71.09
13593;BME280;6867;50.998;4.250;2022-09-16T05:04:13;100928.34;;;14.99;71.19
13593;BME280;6867;50.998;4.250;2022-09-16T05:06:40;100936.25;;;15.01;71.13
13593;BME280;6867;50.998;4.250;2022-09-16T05:09:09;100940.34;;;15.03;71.16
13593;BME280;6867;50.998;4.250;2022-09-16T05:11:37;100949.28;;;15.04;71.74
13593;BME280;6867;50.998;4.250;2022-09-16T05:14:07;100956.72;;;14.97;71.56
13593;BME280;6867;50.998;4.250;2022-09-16T05:16:35;100977.81;;;14.76;73.20
13593;BME280;6867;50.998;4.250;2022-09-16T05:19:03;100987.91;;;14.69;73.86
13593;BME280;6867;50.998;4.250;2022-09-16T05:21:31;100978.03;;;14.75;74.73
13593;BME280;6867;50.998;4.250;2022-09-16T05:23:59;100980.19;;;14.84;74.63
13593;BME280;6867;50.998;4.250;2022-09-16T05:26:29;100996.63;;;14.83;75.43
13593;BME280;6867;50.998;4.250;2022-09-16T05:28:59;100996.75;;;14.88;75.95
13593;BME280;6867;50.998;4.250;2022-09-16T05:31:29;100989.50;;;14.88;75.67
13593;BME280;6867;50.998;4.250;2022-09-16T05:33:57;100991.13;;;14.89;76.26
13593;BME280;6867;50.998;4.250;2022-09-16T05:36:25;100993.47;;;14.86;76.45
13593;BME280;6867;50.998;4.250;2022-09-16T05:38:52;101002.72;;;14.78;77.37
13593;BME280;6867;50.998;4.250;2022-09-16T05:41:18;101011.47;;;14.80;77.67
13593;BME280;6867;50.998;4.250;2022-09-16T05:43:45;101010.28;;;14.76;77.83
13593;BME280;6867;50.998;4.250;2022-09-16T05:46:17;101010.56;;;14.98;77.93
13593;BME280;6867;50.998;4.250;2022-09-16T05:48:45;101009.13;;;14.95;77.94
13593;BME280;6867;50.998;4.250;2022-09-16T05:51:14;101015.47;;;14.89;77.73
13593;BME280;6867;50.998;4.250;2022-09-16T05:53:41;101008.94;;;15.09;78.02
13593;BME280;6867;50.998;4.250;2022-09-16T05:56:10;100999.28;;;15.13;77.97
13593;BME280;6867;50.998;4.250;2022-09-16T05:58:38;100995.44;;;15.20;77.97
13593;BME280;6867;50.998;4.250;2022-09-16T06:01:07;101000.16;;;15.13;77.62
13593;BME280;6867;50.998;4.250;2022-09-16T06:03:35;101000.59;;;15.10;78.14
13593;BME280;6867;50.998;4.250;2022-09-16T06:06:06;100982.72;;;15.09;78.35
13593;BME280;6867;50.998;4.250;2022-09-16T06:08:34;100992.38;;;15.17;78.17
13593;BME280;6867;50.998;4.250;2022-09-16T06:11:04;100989.31;;;15.13;78.46
13593;BME280;6867;50.998;4.250;2022-09-16T06:13:31;100986.94;;;15.17;78.53
13593;BME280;6867;50.998;4.250;2022-09-16T06:15:58;100989.31;;;15.13;78.96
13593;BME280;6867;50.998;4.250;2022-09-16T06:18:26;101002.84;;;15.13;78.71
13593;BME280;6867;50.998;4.250;2022-09-16T06:20:54;101006.38;;;15.14;78.90
13593;BME280;6867;50.998;4.250;2022-09-16T06:23:23;101012.41;;;15.28;79.13
13593;BME280;6867;50.998;4.250;2022-09-16T06:25:58;101013.22;;;15.28;79.52
13593;BME280;6867;50.998;4.250;2022-09-16T06:28:24;101026.88;;;15.33;79.78
13593;BME280;6867;50.998;4.250;2022-09-16T06:31:00;101022.53;;;15.44;79.67
13593;BME280;6867;50.998;4.250;2022-09-16T06:33:27;101026.44;;;15.60;79.79
13593;BME280;6867;50.998;4.250;2022-09-16T06:35:54;101016.47;;;15.72;79.64
13593;BME280;6867;50.998;4.250;2022-09-16T06:38:22;101024.25;;;15.80;79.85
13593;BME280;6867;50.998;4.250;2022-09-16T06:40:49;101014.47;;;15.79;79.00
13593;BME280;6867;50.998;4.250;2022-09-16T06:43:16;101018.31;;;15.60;79.21
13593;BME280;6867;50.998;4.250;2022-09-16T06:45:43;101014.31;;;15.62;79.81
13593;BME280;6867;50.998;4.250;2022-09-16T06:48:10;101013.63;;;15.79;79.29
13593;BME280;6867;50.998;4.250;2022-09-16T06:50:36;101013.06;;;15.65;79.42
13593;BME280;6867;50.998;4.250;2022-09-16T06:53:03;101014.53;;;15.49;79.99
13593;BME280;6867;50.998;4.250;2022-09-16T06:55:31;101023.13;;;15.58;80.04
13593;BME280;6867;50.998;4.250;2022-09-16T06:57:58;101024.78;;;15.59;79.74
13593;BME280;6867;50.998;4.250;2022-09-16T07:00:25;101036.22;;;15.61;80.31
13593;BME280;6867;50.998;4.250;2022-09-16T07:02:52;101029.34;;;15.47;80.57
13593;BME280;6867;50.998;4.250;2022-09-16T07:05:18;101049.00;;;15.42;81.09
13593;BME280;6867;50.998;4.250;2022-09-16T07:07:45;101047.28;;;15.48;80.61
13593;BME280;6867;50.998;4.250;2022-09-16T07:10:13;101041.50;;;15.56;80.56
13593;BME280;6867;50.998;4.250;2022-09-16T07:12:41;101039.69;;;15.68;80.78
13593;BME280;6867;50.998;4.250;2022-09-16T07:15:08;101031.31;;;15.81;80.21
13593;BME280;6867;50.998;4.250;2022-09-16T07:17:35;101026.91;;;15.57;79.62
13593;BME280;6867;50.998;4.250;2022-09-16T07:20:02;101021.41;;;15.63;79.89
13593;BME280;6867;50.998;4.250;2022-09-16T07:22:29;101021.50;;;15.57;78.79
13593;BME280;6867;50.998;4.250;2022-09-16T07:24:56;101020.56;;;15.51;78.54
13593;BME280;6867;50.998;4.250;2022-09-16T07:27:23;101031.81;;;15.36;78.83
13593;BME280;6867;50.998;4.250;2022-09-16T07:29:51;101024.28;;;15.27;79.04
13593;BME280;6867;50.998;4.250;2022-09-16T07:32:18;101029.94;;;15.37;78.85
13593;BME280;6867;50.998;4.250;2022-09-16T07:34:45;101020.41;;;15.46;78.28
13593;BME280;6867;50.998;4.250;2022-09-16T07:37:11;101014.44;;;15.44;78.34
13593;BME280;6867;50.998;4.250;2022-09-16T07:39:39;101008.41;;;15.42;78.19
13593;BME280;6867;50.998;4.250;2022-09-16T07:42:05;101007.41;;;15.78;77.89
13593;BME280;6867;50.998;4.250;2022-09-16T07:44:32;101013.06;;;15.88;77.93
13593;BME280;6867;50.998;4.250;2022-09-16T07:47:00;100991.44;;;16.17;77.20
13593;BME280;6867;50.998;4.250;2022-09-16T07:49:27;100977.06;;;16.16;76.25
13593;BME280;6867;50.998;4.250;2022-09-16T07:51:53;100984.25;;;16.23;76.08
13593;BME280;6867;50.998;4.250;2022-09-16T07:54:20;100980.66;;;16.34;75.46
13593;BME280;6867;50.998;4.250;2022-09-16T07:56:47;100987.13;;;16.44;75.35
13593;BME280;6867;50.998;4.250;2022-09-16T07:59:15;100990.78;;;16.38;75.02
13593;BME280;6867;50.998;4.250;2022-09-16T08:01:42;100993.66;;;16.60;74.98
13593;BME280;6867;50.998;4.250;2022-09-16T08:04:10;101002.72;;;16.66;75.04
13593;BME280;6867;50.998;4.250;2022-09-16T08:06:38;101007.91;;;16.96;75.08
13593;BME280;6867;50.998;4.250;2022-09-16T08:09:05;100988.22;;;16.72;74.05
13593;BME280;6867;50.998;4.250;2022-09-16T08:11:32;101009.56;;;16.68;74.54
13593;BME280;6867;50.998;4.250;2022-09-16T08:13:59;101000.81;;;16.38;74.45
13593;BME280;6867;50.998;4.250;2022-09-16T08:16:26;101032.91;;;16.17;75.04
13593;BME280;6867;50.998;4.250;2022-09-16T08:18:54;101061.78;;;16.00;76.35
13593;BME280;6867;50.998;4.250;2022-09-16T08:21:25;101087.34;;;15.69;76.44
13593;BME280;6867;50.998;4.250;2022-09-16T08:23:53;101093.34;;;15.29;77.94
13593;BME280;6867;50.998;4.250;2022-09-16T08:26:20;101105.94;;;15.24;78.71
13593;BME280;6867;50.998;4.250;2022-09-16T08:28:48;101092.19;;;15.37;78.73
13593;BME280;6867;50.998;4.250;2022-09-16T08:31:15;101093.19;;;15.42;79.10
13593;BME280;6867;50.998;4.250;2022-09-16T08:33:42;101088.78;;;15.41;79.21
13593;BME280;6867;50.998;4.250;2022-09-16T08:36:11;101093.66;;;15.51;79.09
13593;BME280;6867;50.998;4.250;2022-09-16T08:38:41;101074.69;;;15.63;78.12
13593;BME280;6867;50.998;4.250;2022-09-16T08:41:23;101093.06;;;15.61;78.88
13593;BME280;6867;50.998;4.250;2022-09-16T08:44:00;101102.03;;;15.61;79.03
13593;BME280;6867;50.998;4.250;2022-09-16T08:46:33;101098.88;;;15.64;79.47
13593;BME280;6867;50.998;4.250;2022-09-16T08:49:07;101094.44;;;15.93;78.34
13593;BME280;6867;50.998;4.250;2022-09-16T08:51:39;101095.94;;;16.13;77.58
13593;BME280;6867;50.998;4.250;2022-09-16T08:54:11;101089.97;;;15.99;77.57
13593;BME280;6867;50.998;4.250;2022-09-16T08:56:38;101093.84;;;16.15;77.33
13593;BME280;6867;50.998;4.250;2022-09-16T08:59:12;101091.75;;;16.05;77.09
13593;BME280;6867;50.998;4.250;2022-09-16T09:01:46;101078.16;;;16.17;76.53
13593;BME280;6867;50.998;4.250;2022-09-16T09:04:14;101086.75;;;16.26;76.32
13593;BME280;6867;50.998;4.250;2022-09-16T09:06:58;101079.59;;;16.08;75.95
13593;BME280;6867;50.998;4.250;2022-09-16T09:09:39;101084.28;;;16.36;75.87
13593;BME280;6867;50.998;4.250;2022-09-16T09:12:13;101061.03;;;16.52;75.11
13593;BME280;6867;50.998;4.250;2022-09-16T09:14:51;101054.78;;;16.91;73.66
13593;BME280;6867;50.998;4.250;2022-09-16T09:17:28;101045.56;;;16.92;72.96
13593;BME280;6867;50.998;4.250;2022-09-16T09:20:06;101044.16;;;17.18;72.29
13593;BME280;6867;50.998;4.250;2022-09-16T09:22:49;101038.97;;;16.88;71.80
13593;BME280;6867;50.998;4.250;2022-09-16T09:25:30;101025.28;;;17.12;71.16
13593;BME280;6867;50.998;4.250;2022-09-16T09:28:05;101035.81;;;16.80;71.40
13593;BME280;6867;50.998;4.250;2022-09-16T09:30:42;101033.31;;;17.35;71.20
13593;BME280;6867;50.998;4.250;2022-09-16T09:33:25;101015.38;;;17.85;69.86
13593;BME280;6867;50.998;4.250;2022-09-16T09:36:09;100972.19;;;17.88;67.72
13593;BME280;6867;50.998;4.250;2022-09-16T09:38:55;100969.47;;;17.72;67.44
13593;BME280;6867;50.998;4.250;2022-09-16T09:41:31;100981.25;;;17.94;67.27
13593;BME280;6867;50.998;4.250;2022-09-16T09:44:08;100940.56;;;18.26;65.04
13593;BME280;6867;50.998;4.250;2022-09-16T09:46:43;100951.34;;;18.16;65.46
13593;BME280;6867;50.998;4.250;2022-09-16T09:49:13;100943.16;;;17.55;65.32
13593;BME280;6867;50.998;4.250;2022-09-16T09:51:43;100983.63;;;17.35;66.95
13593;BME280;6867;50.998;4.250;2022-09-16T09:54:25;100990.50;;;18.15;66.57
13593;BME280;6867;50.998;4.250;2022-09-16T09:56:57;100966.25;;;18.84;64.32
13593;BME280;6867;50.998;4.250;2022-09-16T09:59:29;100923.34;;;18.97;62.59
13593;BME280;6867;50.998;4.250;2022-09-16T10:01:57;100928.13;;;18.84;61.97
13593;BME280;6867;50.998;4.250;2022-09-16T10:04:24;100941.88;;;18.46;62.35
13593;BME280;6867;50.998;4.250;2022-09-16T10:06:53;100988.75;;;17.70;65.05
13593;BME280;6867;50.998;4.250;2022-09-16T10:09:21;101046.44;;;17.10;67.64
13593;BME280;6867;50.998;4.250;2022-09-16T10:11:50;101076.50;;;16.80;69.67
13593;BME280;6867;50.998;4.250;2022-09-16T10:14:26;101056.91;;;16.49;69.96
13593;BME280;6867;50.998;4.250;2022-09-16T10:16:54;101068.13;;;16.17;70.54
13593;BME280;6867;50.998;4.250;2022-09-16T10:19:23;101063.41;;;16.36;70.98
13593;BME280;6867;50.998;4.250;2022-09-16T10:21:53;101060.41;;;16.73;71.46
13593;BME280;6867;50.998;4.250;2022-09-16T10:24:31;101046.69;;;16.80;70.64
13593;BME280;6867;50.998;4.250;2022-09-16T10:26:59;101070.75;;;17.05;71.78
13593;BME280;6867;50.998;4.250;2022-09-16T10:29:28;101084.50;;;17.43;72.75
13593;BME280;6867;50.998;4.250;2022-09-16T10:31:55;101072.16;;;18.03;71.90
13593;BME280;6867;50.998;4.250;2022-09-16T10:34:27;101040.13;;;18.49;69.79
13593;BME280;6867;50.998;4.250;2022-09-16T10:37:03;101043.66;;;18.94;69.21
13593;BME280;6867;50.998;4.250;2022-09-16T10:39:31;100977.53;;;18.71;66.69
13593;BME280;6867;50.998;4.250;2022-09-16T10:41:58;100977.09;;;18.79;66.04
13593;BME280;6867;50.998;4.250;2022-09-16T10:44:28;100953.44;;;19.12;64.24
13593;BME280;6867;50.998;4.250;2022-09-16T10:46:59;100972.72;;;18.78;64.33
13593;BME280;6867;50.998;4.250;2022-09-16T10:49:32;101008.09;;;17.90;65.96
13593;BME280;6867;50.998;4.250;2022-09-16T10:52:13;101048.44;;;17.31;68.10
13593;BME280;6867;50.998;4.250;2022-09-16T10:54:41;101079.00;;;17.10;69.94
13593;BME280;6867;50.998;4.250;2022-09-16T10:57:20;101087.63;;;16.78;71.45
13593;BME280;6867;50.998;4.250;2022-09-16T10:59:57;101089.88;;;16.58;72.04
13593;BME280;6867;50.998;4.250;2022-09-16T11:02:33;101102.91;;;16.32;73.28
13593;BME280;6867;50.998;4.250;2022-09-16T11:05:05;101102.50;;;16.64;73.92
13593;BME280;6867;50.998;4.250;2022-09-16T11:07:40;101097.50;;;16.84;73.50
13593;BME280;6867;50.998;4.250;2022-09-16T11:10:17;101100.34;;;17.18;73.37
13593;BME280;6867;50.998;4.250;2022-09-16T11:13:17;101087.34;;;17.37;72.30
13593;BME280;6867;50.998;4.250;2022-09-16T11:15:58;101093.41;;;17.56;72.30
13593;BME280;6867;50.998;4.250;2022-09-16T11:18:37;101074.81;;;17.81;71.33
13593;BME280;6867;50.998;4.250;2022-09-16T11:21:18;101061.84;;;17.72;70.74
13593;BME280;6867;50.998;4.250;2022-09-16T11:24:09;101051.66;;;18.17;69.63
13593;BME280;6867;50.998;4.250;2022-09-16T11:26:45;101051.94;;;18.38;69.38
13593;BME280;6867;50.998;4.250;2022-09-16T11:29:33;101036.31;;;18.28;68.29
13593;BME280;6867;50.998;4.250;2022-09-16T11:32:13;101033.50;;;18.40;67.65
13593;BME280;6867;50.998;4.250;2022-09-16T11:34:54;101022.84;;;18.38;66.76
13593;BME280;6867;50.998;4.250;2022-09-16T11:37:28;101053.13;;;18.25;67.70
13593;BME280;6867;50.998;4.250;2022-09-16T11:40:14;101026.72;;;17.82;66.91
13593;BME280;6867;50.998;4.250;2022-09-16T11:42:50;101058.31;;;17.71;67.90
13593;BME280;6867;50.998;4.250;2022-09-16T11:45:37;101067.69;;;17.47;68.58
13593;BME280;6867;50.998;4.250;2022-09-16T11:48:31;101054.75;;;17.20;68.22
13593;BME280;6867;50.998;4.250;2022-09-16T11:51:07;101069.78;;;17.11;68.89
13593;BME280;6867;50.998;4.250;2022-09-16T11:53:46;101068.63;;;16.78;68.87
13593;BME280;6867;50.998;4.250;2022-09-16T11:56:20;101108.06;;;16.34;70.42
13593;BME280;6867;50.998;4.250;2022-09-16T11:58:54;101121.13;;;15.66;72.30
13593;BME280;6867;50.998;4.250;2022-09-16T12:01:28;101121.69;;;15.57;73.86
13593;BME280;6867;50.998;4.250;2022-09-16T12:04:03;101092.31;;;15.30;73.70
13593;BME280;6867;50.998;4.250;2022-09-16T12:06:37;101083.41;;;15.53;73.13
13593;BME280;6867;50.998;4.250;2022-09-16T12:09:10;101065.19;;;15.60;72.68
13593;BME280;6867;50.998;4.250;2022-09-16T12:11:45;101062.38;;;15.79;71.95
13593;BME280;6867;50.998;4.250;2022-09-16T12:14:15;101081.00;;;15.99;72.10
13593;BME280;6867;50.998;4.250;2022-09-16T12:16:46;101090.50;;;16.48;71.89
13593;BME280;6867;50.998;4.250;2022-09-16T12:19:19;101097.41;;;17.36;70.67
13593;BME280;6867;50.998;4.250;2022-09-16T12:21:51;101067.13;;;17.61;68.80
13593;BME280;6867;50.998;4.250;2022-09-16T12:24:25;101058.72;;;17.63;68.01
13593;BME280;6867;50.998;4.250;2022-09-16T12:26:58;101074.38;;;17.73;68.92
13593;BME280;6867;50.998;4.250;2022-09-16T12:29:32;101061.78;;;17.50;68.30
13593;BME280;6867;50.998;4.250;2022-09-16T12:32:05;101064.84;;;17.08;68.57
13593;BME280;6867;50.998;4.250;2022-09-16T12:34:40;101057.09;;;17.00;68.73
13593;BME280;6867;50.998;4.250;2022-09-16T12:37:23;101058.13;;;17.10;68.28
13593;BME280;6867;50.998;4.250;2022-09-16T12:39:53;101065.78;;;17.47;67.88
13593;BME280;6867;50.998;4.250;2022-09-16T12:45:44;101049.66;;;18.52;66.71
13593;BME280;6867;50.998;4.250;2022-09-16T12:48:49;101021.66;;;18.73;65.48
13593;BME280;6867;50.998;4.250;2022-09-16T12:51:36;101005.34;;;18.73;64.39
13593;BME280;6867;50.998;4.250;2022-09-16T12:54:29;101010.38;;;19.51;64.24
13593;BME280;6867;50.998;4.250;2022-09-16T12:57:14;100962.16;;;19.51;62.22
13593;BME280;6867;50.998;4.250;2022-09-16T12:59:55;100977.03;;;19.71;62.12
13593;BME280;6867;50.998;4.250;2022-09-16T13:02:33;100980.81;;;20.22;62.00
13593;BME280;6867;50.998;4.250;2022-09-16T13:05:11;100964.38;;;21.00;60.50
13593;BME280;6867;50.998;4.250;2022-09-16T13:07:40;100910.06;;;20.99;58.46
13593;BME280;6867;50.998;4.250;2022-09-16T13:10:15;100942.78;;;20.68;59.23
13593;BME280;6867;50.998;4.250;2022-09-16T13:12:48;100963.81;;;19.52;60.03
13593;BME280;6867;50.998;4.250;2022-09-16T13:15:23;100979.94;;;17.80;62.08
13593;BME280;6867;50.998;4.250;2022-09-16T13:17:51;101017.78;;;15.93;64.92
13593;BME280;6867;50.998;4.250;2022-09-16T13:20:20;101085.06;;;15.54;67.30
13593;BME280;6867;50.998;4.250;2022-09-16T13:23:05;101097.19;;;15.10;68.87
13593;BME280;6867;50.998;4.250;2022-09-16T13:25:43;101106.31;;;14.97;70.55
13593;BME280;6867;50.998;4.250;2022-09-16T13:28:22;101140.56;;;15.03;71.34